createdAt,value
2022-10-17T00:00:01.074Z,9.50
2022-10-17T00:02:28.215Z,9.50
2022-10-17T00:04:55.490Z,9.60
2022-10-17T00:07:22.701Z,9.70
2022-10-17T00:09:49.779Z,9.60
2022-10-17T00:12:16.879Z,9.50
2022-10-17T00:14:44.012Z,9.50
2022-10-17T00:17:11.151Z,9.50
2022-10-17T00:19:38.072Z,9.40
2022-10-17T00:22:04.957Z,9.40
2022-10-17T00:24:32.446Z,9.40
2022-10-17T00:27:00.026Z,9.50
2022-10-17T00:29:28.017Z,9.40
2022-10-17T00:31:56.495Z,9.40
2022-10-17T00:34:24.842Z,9.50
2022-10-17T00:36:52.214Z,9.60
2022-10-17T00:39:19.908Z,9.60
2022-10-17T00:41:47.134Z,9.60
2022-10-17T00:44:32.593Z,9.40
2022-10-17T00:47:04.126Z,9.40
2022-10-17T00:49:34.933Z,9.50
2022-10-17T00:52:06.411Z,9.40
2022-10-17T00:54:36.911Z,9.20
2022-10-17T00:57:04.930Z,9.30
2022-10-17T00:59:34.370Z,9.30
2022-10-17T01:02:10.452Z,9.40
2022-10-17T01:04:43.006Z,9.20
2022-10-17T01:07:10.668Z,9.00
2022-10-17T01:09:38.721Z,9.00
2022-10-17T01:12:14.522Z,9.20
2022-10-17T01:14:41.419Z,9.30
2022-10-17T01:17:30.268Z,9.30
2022-10-17T01:20:06.057Z,9.20
2022-10-17T01:22:41.198Z,9.20
2022-10-17T01:25:23.868Z,9.20
2022-10-17T01:28:12.616Z,9.20
2022-10-17T01:31:00.584Z,8.90
2022-10-17T01:33:59.939Z,9.10
2022-10-17T01:36:50.949Z,9.10
2022-10-17T01:39:22.715Z,9.10
2022-10-17T01:42:04.436Z,9.10
2022-10-17T01:45:03.321Z,9.00
2022-10-17T01:47:32.864Z,8.90
2022-10-17T01:50:12.344Z,8.90
2022-10-17T01:52:45.213Z,8.80
2022-10-17T01:55:27.227Z,8.80
2022-10-17T01:58:03.903Z,8.90
2022-10-17T02:00:32.673Z,8.90
2022-10-17T02:03:02.811Z,8.90
2022-10-17T02:05:37.761Z,8.90
2022-10-17T02:08:05.343Z,8.90
2022-10-17T02:10:44.133Z,8.90
2022-10-17T02:13:45.341Z,8.80
2022-10-17T02:17:02.901Z,8.80
2022-10-17T02:19:37.995Z,8.80
2022-10-17T02:22:14.303Z,8.90
2022-10-17T02:25:09.690Z,8.80
2022-10-17T02:28:06.209Z,8.80
2022-10-17T02:30:48.374Z,8.80
2022-10-17T02:33:24.280Z,8.80
2022-10-17T02:35:56.442Z,8.90
2022-10-17T02:38:24.911Z,8.80
2022-10-17T02:40:53.900Z,8.80
2022-10-17T02:43:21.944Z,8.90
2022-10-17T02:45:50.171Z,8.90
2022-10-17T02:48:34.698Z,8.80
2022-10-17T02:51:24.312Z,8.90
2022-10-17T02:53:58.731Z,8.80
2022-10-17T02:56:27.422Z,8.70
2022-10-17T02:58:58.852Z,8.60
2022-10-17T03:01:26.276Z,8.80
2022-10-17T03:04:08.620Z,8.90
2022-10-17T03:06:35.600Z,9.00
2022-10-17T03:09:02.421Z,8.90
2022-10-17T03:11:29.330Z,8.90
2022-10-17T03:13:56.345Z,8.70
2022-10-17T03:16:23.260Z,8.70
2022-10-17T03:18:50.326Z,8.70
2022-10-17T03:21:17.221Z,8.60
2022-10-17T03:23:43.991Z,8.60
2022-10-17T03:26:10.916Z,8.70
2022-10-17T03:28:37.773Z,8.80
2022-10-17T03:31:13.984Z,8.90
2022-10-17T03:33:40.796Z,8.90
2022-10-17T03:36:13.561Z,8.90
2022-10-17T03:38:40.651Z,8.80
2022-10-17T03:41:07.977Z,8.80
2022-10-17T03:43:35.215Z,8.80
2022-10-17T03:46:02.753Z,8.80
2022-10-17T03:48:30.937Z,8.80
2022-10-17T03:51:03.261Z,8.60
2022-10-17T03:53:30.179Z,8.60
2022-10-17T03:55:57.909Z,8.60
2022-10-17T03:58:24.751Z,8.50
2022-10-17T04:00:52.512Z,8.50
2022-10-17T04:03:19.348Z,8.40
2022-10-17T04:05:46.199Z,8.40
2022-10-17T04:08:13.012Z,8.50
2022-10-17T04:10:39.787Z,8.50
2022-10-17T04:13:06.832Z,8.50
2022-10-17T04:15:33.586Z,8.40
2022-10-17T04:18:00.373Z,8.40
2022-10-17T04:20:27.257Z,8.50
2022-10-17T04:22:54.048Z,8.30
2022-10-17T04:25:20.842Z,8.20
2022-10-17T04:27:49.043Z,8.20
2022-10-17T04:30:16.135Z,8.20
2022-10-17T04:32:42.933Z,8.40
2022-10-17T04:35:13.020Z,8.40
2022-10-17T04:37:39.787Z,8.30
2022-10-17T04:40:07.250Z,8.20
2022-10-17T04:42:34.085Z,8.30
2022-10-17T04:45:00.907Z,8.30
2022-10-17T04:47:27.662Z,8.30
2022-10-17T04:49:54.460Z,8.30
2022-10-17T04:52:21.305Z,8.20
2022-10-17T04:54:48.102Z,8.10
2022-10-17T04:57:15.238Z,8.10
2022-10-17T04:59:42.049Z,8.10
2022-10-17T05:02:08.956Z,8.10
2022-10-17T05:04:35.819Z,8.20
2022-10-17T05:07:02.711Z,7.90
2022-10-17T05:09:30.066Z,8.00
2022-10-17T05:11:56.936Z,8.00
2022-10-17T05:14:23.902Z,8.00
2022-10-17T05:16:50.810Z,7.90
2022-10-17T05:19:18.589Z,7.90
2022-10-17T05:21:45.454Z,8.00
2022-10-17T05:24:14.991Z,8.00
2022-10-17T05:26:42.273Z,8.00
2022-10-17T05:29:20.967Z,8.00
2022-10-17T05:31:53.853Z,8.00
2022-10-17T05:34:20.922Z,8.00
2022-10-17T05:36:47.725Z,8.00
2022-10-17T05:39:15.218Z,8.10
2022-10-17T05:41:41.975Z,8.00
2022-10-17T05:44:08.752Z,8.00
2022-10-17T05:46:35.912Z,8.00
2022-10-17T05:49:10.635Z,8.00
2022-10-17T05:51:46.253Z,8.10
2022-10-17T05:54:12.988Z,8.10
2022-10-17T05:56:39.939Z,8.20
2022-10-17T05:59:06.767Z,8.10
2022-10-17T06:01:33.638Z,8.10
2022-10-17T06:04:00.434Z,8.20
2022-10-17T06:06:27.304Z,8.20
2022-10-17T06:08:54.070Z,8.20
2022-10-17T06:11:20.813Z,8.20
2022-10-17T06:13:47.600Z,8.10
2022-10-17T06:16:14.392Z,8.20
2022-10-17T06:18:41.173Z,8.20
2022-10-17T06:21:10.397Z,8.40
2022-10-17T06:23:37.424Z,8.40
2022-10-17T06:26:06.107Z,8.40
2022-10-17T06:28:33.480Z,8.40
2022-10-17T06:31:05.320Z,8.40
2022-10-17T06:33:32.747Z,8.50
2022-10-17T06:36:07.772Z,8.50
2022-10-17T06:41:19.481Z,8.70
2022-10-17T06:43:47.457Z,8.80
2022-10-17T06:46:16.662Z,8.90
2022-10-17T06:48:47.056Z,9.00
2022-10-17T06:51:14.234Z,9.10
2022-10-17T06:53:44.054Z,9.20
2022-10-17T06:56:11.919Z,9.20
2022-10-17T06:58:40.195Z,9.30
2022-10-17T07:04:00.716Z,9.50
2022-10-17T07:06:29.704Z,9.50
2022-10-17T07:08:57.088Z,9.60
2022-10-17T07:11:27.993Z,9.80
2022-10-17T07:13:54.888Z,9.80
2022-10-17T07:16:22.010Z,9.90
2022-10-17T07:18:52.501Z,10.10
2022-10-17T07:21:19.630Z,10.30
2022-10-17T07:23:46.991Z,10.50
2022-10-17T07:26:16.890Z,10.50
2022-10-17T07:36:49.063Z,10.90
2022-10-17T07:39:18.401Z,11.00
2022-10-17T07:41:45.804Z,11.10
2022-10-17T07:44:14.078Z,11.20
2022-10-17T07:46:41.706Z,11.40
2022-10-17T07:49:13.553Z,11.50
2022-10-17T07:51:40.451Z,11.50
2022-10-17T07:56:55.505Z,11.90
2022-10-17T07:59:23.379Z,12.00
2022-10-17T08:01:50.562Z,12.10
2022-10-17T08:04:18.195Z,12.60
2022-10-17T08:06:45.288Z,12.60
2022-10-17T08:09:12.717Z,12.50
2022-10-17T08:11:39.774Z,12.70
2022-10-17T08:14:07.548Z,13.10
2022-10-17T08:16:34.566Z,13.30
2022-10-17T08:19:01.789Z,13.40
2022-10-17T08:21:29.330Z,13.40
2022-10-17T08:23:56.984Z,13.40
2022-10-17T08:26:25.742Z,13.70
2022-10-17T08:28:55.191Z,13.90
2022-10-17T08:31:23.076Z,13.80
2022-10-17T08:33:50.764Z,14.00
2022-10-17T08:36:20.281Z,14.00
2022-10-17T08:38:52.853Z,14.10
2022-10-17T08:41:45.147Z,14.20
2022-10-17T08:44:28.472Z,14.40
2022-10-17T08:47:02.165Z,14.40
2022-10-17T08:49:38.671Z,14.70
2022-10-17T08:52:34.752Z,14.90
2022-10-17T08:55:11.583Z,15.00
2022-10-17T08:57:38.853Z,15.00
2022-10-17T09:00:17.156Z,15.40
2022-10-17T09:03:05.052Z,15.50
2022-10-17T09:05:42.234Z,15.90
2022-10-17T09:08:33.608Z,15.80
2022-10-17T09:11:18.463Z,15.90
2022-10-17T09:14:03.450Z,16.30
2022-10-17T09:16:54.664Z,16.40
2022-10-17T09:19:32.216Z,16.60
2022-10-17T09:22:04.414Z,16.70
2022-10-17T09:24:44.190Z,16.90
2022-10-17T09:27:41.533Z,16.80
2022-10-17T09:46:26.110Z,17.20
2022-10-17T09:51:33.263Z,17.40
2022-10-17T09:54:04.218Z,17.70
2022-10-17T10:05:07.508Z,18.00
2022-10-17T10:07:39.546Z,18.40
2022-10-17T10:20:43.342Z,18.50
2022-10-17T10:23:18.781Z,18.40
2022-10-17T10:31:08.944Z,18.50
2022-10-17T10:33:41.958Z,18.70
2022-10-17T10:36:12.346Z,18.70
2022-10-17T10:38:42.703Z,18.70
2022-10-17T10:41:11.453Z,19.00
2022-10-17T10:46:29.141Z,19.00
2022-10-17T10:51:46.218Z,19.30
2022-10-17T11:08:01.557Z,19.20
2022-10-17T11:16:17.534Z,18.80
2022-10-17T11:19:26.018Z,18.90
2022-10-17T11:22:04.976Z,19.20
2022-10-17T11:24:57.239Z,19.30
2022-10-17T11:27:25.007Z,19.00
2022-10-17T11:29:52.109Z,19.40
2022-10-17T11:32:28.690Z,19.80
2022-10-17T11:35:02.366Z,19.80
2022-10-17T11:37:39.513Z,19.80
2022-10-17T11:40:32.267Z,19.90
2022-10-17T11:43:09.816Z,19.90
2022-10-17T11:45:46.250Z,20.00
2022-10-17T11:48:26.115Z,19.90
2022-10-17T11:54:28.448Z,19.60
2022-10-17T11:57:43.064Z,19.40
2022-10-17T12:00:35.784Z,19.80
2022-10-17T12:03:32.579Z,19.80
2022-10-17T12:06:35.313Z,19.90
2022-10-17T12:09:37.417Z,20.20
2022-10-17T12:12:04.211Z,20.00
2022-10-17T12:14:34.667Z,20.30
2022-10-17T12:25:06.577Z,19.80
2022-10-17T12:27:36.402Z,19.90
2022-10-17T12:30:22.963Z,19.70
2022-10-17T12:35:39.420Z,20.20
2022-10-17T12:38:21.224Z,20.20
2022-10-17T12:40:50.871Z,20.00
2022-10-17T12:52:05.940Z,20.20
2022-10-17T12:57:39.200Z,20.40
2022-10-17T13:00:18.907Z,20.70
2022-10-17T13:02:49.007Z,20.30
2022-10-17T13:05:37.137Z,20.60
2022-10-17T13:21:37.627Z,20.80
2022-10-17T13:37:38.188Z,20.50
2022-10-17T13:40:24.825Z,20.60
2022-10-17T13:42:55.416Z,20.50
2022-10-17T13:48:18.212Z,20.70
2022-10-17T13:50:50.390Z,20.70
2022-10-17T13:53:26.917Z,20.60
2022-10-17T13:56:09.783Z,20.60
2022-10-17T13:58:57.470Z,20.40
2022-10-17T14:01:30.001Z,20.00
2022-10-17T14:04:08.505Z,20.00
2022-10-17T14:06:47.928Z,19.90
2022-10-17T14:09:21.800Z,19.80
2022-10-17T14:12:11.264Z,19.70
2022-10-17T14:15:08.758Z,19.90
2022-10-17T14:17:31.314Z,19.70
2022-10-17T14:20:40.427Z,19.40
2022-10-17T14:23:17.500Z,19.40
2022-10-17T14:25:40.899Z,19.30
2022-10-17T14:28:12.732Z,19.00
2022-10-17T14:30:56.634Z,19.20
2022-10-17T14:33:29.237Z,19.30
2022-10-17T14:35:58.770Z,19.20
2022-10-17T14:38:27.531Z,19.10
2022-10-17T14:44:08.985Z,19.00
2022-10-17T14:46:39.079Z,18.90
2022-10-17T14:49:23.257Z,18.80
2022-10-17T14:52:16.762Z,18.70
2022-10-17T14:54:48.441Z,18.70
2022-10-17T14:57:19.885Z,18.60
2022-10-17T14:59:55.308Z,18.50
2022-10-17T15:02:24.615Z,18.50
2022-10-17T15:04:52.225Z,18.30
2022-10-17T15:07:21.216Z,18.20
2022-10-17T15:09:50.321Z,18.10
2022-10-17T15:12:19.473Z,18.00
2022-10-17T15:14:48.501Z,18.00
2022-10-17T15:17:22.446Z,18.00
2022-10-17T15:19:50.784Z,17.90
2022-10-17T15:22:18.320Z,17.80
2022-10-17T15:24:48.514Z,17.70
2022-10-17T15:27:22.200Z,17.50
2022-10-17T15:32:34.071Z,17.00
2022-10-17T15:35:01.002Z,16.80
2022-10-17T15:37:35.485Z,16.60
2022-10-17T15:40:05.069Z,16.10
2022-10-17T15:42:32.593Z,16.00
2022-10-17T15:45:00.806Z,16.00
2022-10-17T15:47:34.310Z,16.00
2022-10-17T15:50:02.395Z,15.80
2022-10-17T15:52:30.089Z,15.80
2022-10-17T15:54:59.595Z,15.80
2022-10-17T15:57:34.047Z,15.30
2022-10-17T16:00:01.771Z,15.10
2022-10-17T16:02:29.248Z,15.20
2022-10-17T16:04:56.320Z,15.30
2022-10-17T16:07:23.407Z,15.30
2022-10-17T16:09:50.301Z,15.40
2022-10-17T16:12:29.169Z,15.30
2022-10-17T16:14:56.739Z,15.00
2022-10-17T16:17:23.779Z,14.70
2022-10-17T16:19:50.763Z,14.60
2022-10-17T16:22:23.414Z,14.60
2022-10-17T16:24:50.737Z,14.50
2022-10-17T16:27:17.614Z,14.30
2022-10-17T16:29:44.577Z,14.30
2022-10-17T16:32:11.399Z,14.30
2022-10-17T16:34:38.271Z,14.40
2022-10-17T16:37:05.056Z,14.40
2022-10-17T16:39:31.858Z,14.50
2022-10-17T16:41:58.808Z,14.30
2022-10-17T16:44:25.888Z,14.30
2022-10-17T16:46:52.699Z,14.20
2022-10-17T16:49:19.462Z,13.80
2022-10-17T16:51:46.351Z,13.80
2022-10-17T16:54:13.102Z,13.90
2022-10-17T16:56:39.888Z,13.70
2022-10-17T16:59:06.806Z,13.70
2022-10-17T17:01:33.649Z,13.60
2022-10-17T17:04:01.182Z,13.40
2022-10-17T17:06:29.537Z,13.50
2022-10-17T17:08:57.636Z,13.40
2022-10-17T17:11:26.260Z,13.40
2022-10-17T17:13:56.616Z,13.40
2022-10-17T17:16:25.753Z,13.50
2022-10-17T17:18:57.984Z,13.40
2022-10-17T17:21:24.929Z,13.50
2022-10-17T17:23:51.897Z,13.40
2022-10-17T17:26:23.204Z,13.20
2022-10-17T17:28:50.581Z,13.10
2022-10-17T17:31:23.460Z,13.10
2022-10-17T17:33:51.634Z,13.10
2022-10-17T17:36:22.275Z,13.10
2022-10-17T17:38:50.168Z,13.10
2022-10-17T17:41:19.014Z,13.00
2022-10-17T17:43:47.204Z,12.80
2022-10-17T17:46:16.647Z,12.70
2022-10-17T17:48:46.381Z,12.70
2022-10-17T17:51:20.674Z,12.70
2022-10-17T17:53:48.538Z,12.40
2022-10-17T17:56:18.717Z,12.50
2022-10-17T17:58:47.068Z,12.30
2022-10-17T18:01:19.158Z,12.30
2022-10-17T18:03:46.331Z,12.40
2022-10-17T18:06:13.706Z,12.60
2022-10-17T18:08:43.697Z,12.50
2022-10-17T18:11:10.686Z,12.60
2022-10-17T18:13:37.713Z,12.70
2022-10-17T18:16:13.181Z,12.40
2022-10-17T18:18:42.341Z,12.20
2022-10-17T18:21:11.236Z,12.00
2022-10-17T18:23:47.630Z,12.00
2022-10-17T18:26:15.161Z,12.10
2022-10-17T18:28:43.394Z,12.10
2022-10-17T18:31:24.493Z,12.10
2022-10-17T18:33:52.963Z,12.20
2022-10-17T18:36:21.048Z,12.20
2022-10-17T18:38:48.417Z,12.20
2022-10-17T18:41:21.003Z,12.20
2022-10-17T18:43:49.080Z,12.20
2022-10-17T18:46:18.928Z,12.20
2022-10-17T18:48:47.150Z,12.20
2022-10-17T18:51:15.721Z,12.10
2022-10-17T18:53:44.093Z,11.80
2022-10-17T18:56:11.534Z,11.70
2022-10-17T18:58:39.399Z,11.90
2022-10-17T19:01:10.811Z,11.90
2022-10-17T19:03:38.339Z,11.60
2022-10-17T19:06:07.970Z,11.70
2022-10-17T19:08:35.915Z,11.40
2022-10-17T19:11:14.068Z,11.70
2022-10-17T19:13:41.373Z,11.90
2022-10-17T19:16:10.519Z,11.90
2022-10-17T19:18:37.913Z,11.60
2022-10-17T19:21:07.024Z,11.40
2022-10-17T19:23:35.983Z,11.50
2022-10-17T19:26:11.907Z,11.60
2022-10-17T19:28:42.164Z,11.90
2022-10-17T19:31:09.142Z,11.70
2022-10-17T19:33:37.231Z,11.60
2022-10-17T19:36:07.791Z,11.70
2022-10-17T19:38:35.757Z,11.80
2022-10-17T19:41:10.648Z,11.50
2022-10-17T19:43:38.927Z,11.20
2022-10-17T19:46:08.437Z,11.40
2022-10-17T19:48:36.930Z,11.30
2022-10-17T19:51:08.897Z,11.10
2022-10-17T19:53:36.141Z,11.20
2022-10-17T19:56:03.682Z,11.30
2022-10-17T19:58:31.124Z,11.20
2022-10-17T20:01:01.223Z,11.00
2022-10-17T20:03:28.668Z,11.00
2022-10-17T20:05:55.811Z,11.00
2022-10-17T20:08:22.676Z,11.00
2022-10-17T20:10:49.467Z,11.10
2022-10-17T20:13:16.272Z,11.10
2022-10-17T20:15:43.062Z,10.90
2022-10-17T20:18:10.533Z,11.00
2022-10-17T20:20:37.951Z,10.90
2022-10-17T20:23:05.034Z,10.70
2022-10-17T20:25:33.462Z,10.80
2022-10-17T20:28:00.623Z,10.60
2022-10-17T20:30:27.379Z,10.70
2022-10-17T20:32:55.720Z,10.70
2022-10-17T20:35:22.871Z,10.70
2022-10-17T20:37:50.059Z,10.70
2022-10-17T20:40:34.083Z,10.70
2022-10-17T20:43:02.011Z,10.50
2022-10-17T20:45:43.687Z,10.80
2022-10-17T20:48:16.200Z,10.60
2022-10-17T20:50:43.953Z,10.50
2022-10-17T20:53:35.510Z,10.50
2022-10-17T20:56:07.843Z,10.30
2022-10-17T20:58:35.303Z,10.70
2022-10-17T21:01:07.205Z,10.80
2022-10-17T21:03:39.817Z,10.70
2022-10-17T21:06:09.956Z,10.70
2022-10-17T21:08:36.708Z,10.70
2022-10-17T21:11:13.733Z,10.80
2022-10-17T21:13:41.675Z,10.80
2022-10-17T21:16:14.638Z,10.60
2022-10-17T21:18:41.880Z,10.60
2022-10-17T21:21:14.835Z,10.50
2022-10-17T21:23:43.603Z,10.40
2022-10-17T21:26:12.760Z,10.40
2022-10-17T21:28:40.832Z,10.50
2022-10-17T21:31:11.825Z,10.50
2022-10-17T21:33:39.534Z,10.50
2022-10-17T21:36:07.081Z,10.50
2022-10-17T21:38:38.549Z,10.30
2022-10-17T21:41:06.801Z,10.20
2022-10-17T21:43:34.752Z,10.20
2022-10-17T21:46:07.967Z,10.30
2022-10-17T21:48:35.628Z,10.40
2022-10-17T21:51:04.703Z,10.20
2022-10-17T21:53:31.681Z,10.20
2022-10-17T21:56:03.171Z,10.20
2022-10-17T21:58:30.428Z,10.40
2022-10-17T22:01:28.804Z,10.60
2022-10-17T22:03:59.014Z,10.50
2022-10-17T22:06:43.744Z,10.20
2022-10-17T22:09:24.172Z,10.10
2022-10-17T22:11:54.926Z,9.80
2022-10-17T22:14:23.500Z,9.90
2022-10-17T22:16:51.049Z,10.00
2022-10-17T22:19:21.465Z,9.80
2022-10-17T22:21:48.671Z,9.90
2022-10-17T22:24:17.650Z,10.10
2022-10-17T22:26:44.690Z,10.00
2022-10-17T22:29:12.108Z,9.90
2022-10-17T22:31:39.222Z,9.90
2022-10-17T22:34:06.901Z,10.00
2022-10-17T22:36:34.921Z,10.00
2022-10-17T22:39:01.957Z,10.10
2022-10-17T22:41:28.906Z,10.10
2022-10-17T22:43:55.740Z,9.90
2022-10-17T22:46:22.613Z,10.00
2022-10-17T22:48:49.437Z,9.90
2022-10-17T22:51:16.401Z,10.00
2022-10-17T22:53:43.290Z,10.00
2022-10-17T22:56:20.152Z,9.90
2022-10-17T22:58:47.551Z,9.80
2022-10-17T23:01:17.349Z,9.80
2022-10-17T23:03:44.243Z,9.80
2022-10-17T23:06:11.481Z,9.90
2022-10-17T23:08:38.882Z,9.80
2022-10-17T23:11:06.532Z,9.80
2022-10-17T23:13:33.516Z,9.90
2022-10-17T23:16:00.507Z,9.90
2022-10-17T23:18:27.514Z,9.90
2022-10-17T23:20:55.251Z,9.80
2022-10-17T23:23:22.303Z,9.70
2022-10-17T23:25:49.576Z,9.60
2022-10-17T23:28:17.334Z,9.50
2022-10-17T23:30:44.479Z,9.60
2022-10-17T23:33:12.927Z,9.60
2022-10-17T23:35:40.596Z,9.60
2022-10-17T23:38:07.474Z,9.60
2022-10-17T23:40:35.314Z,9.60
2022-10-17T23:43:03.061Z,9.70
2022-10-17T23:45:34.610Z,9.50
2022-10-17T23:48:03.096Z,9.30
2022-10-17T23:50:29.868Z,9.30
2022-10-17T23:52:56.642Z,9.40
2022-10-17T23:55:23.424Z,9.40
2022-10-17T23:57:50.224Z,9.40
